Harlech, United Kingdom
Current Conditions -  °F | °C
As of 12:50 AM on Monday 24 Nov 2014 (Local Time) from EGOV Reporting Station
Few Clouds Few Clouds  
Wind Chill: 38°   Ceiling: Unl
Heat Index: 43°   Visibility: 6mi
Dew Point: 37°   Wind: 8mph
Humidity: 81%   Direction: 260°W
Pressure: 30.21"   Gusts: NA
Location:  52.86°N, 4.11°W
Report Text: EGOV 240050Z AUTO 26007KT 9999 FEW029/// 06/03 Q1023
Loading
Personal Weather Stations






























Interactive Weather Map New forecast layout! Learn more

10-Day Weather Forecast

Advertisements
Track Severe Weather on mobile